Time;durP1;ratioP1;P1;durP2;ratioP2;P2;SDS_P1;SDS_P2;PMS_P1;PMS_P2;Temp;Humidity;BMP_temperature;BMP_pressure;BME280_temperature;BME280_humidity;BME280_pressure;Samples;Min_cycle;Max_cycle;Signal;HPM_P1;HPM_P2
2022/01/16 00:00:26;;;;;;;14.57;7.05;;;29.50;99.90;;;;;;5052771;28;20029;-73
2022/01/16 00:05:22;;;;;;;12.07;6.63;;;29.90;99.90;;;;;;5056274;28;20049;-72
2022/01/16 00:07:50;;;;;;;15.77;7.38;;;30.10;99.90;;;;;;5056466;28;20123;-73
2022/01/16 00:10:18;;;;;;;18.08;8.07;;;29.80;99.90;;;;;;5055148;28;20032;-72
2022/01/16 00:12:49;;;;;;;15.32;7.90;;;30.00;99.90;;;;;;5055122;28;20021;-73
2022/01/16 00:15:22;;;;;;;14.02;7.35;;;30.00;99.90;;;;;;5056239;28;20021;-72
2022/01/16 00:18:07;;;;;;;14.32;7.35;;;30.30;99.90;;;;;;5055084;28;20025;-72
2022/01/16 00:20:36;;;;;;;10.75;6.28;;;30.60;99.90;;;;;;5056353;28;20017;-72
2022/01/16 00:23:06;;;;;;;11.13;6.72;;;;;;;;;;5056360;28;20104;-72
2022/01/16 00:25:33;;;;;;;13.40;7.18;;;;;;;;;;5054784;28;20555;-73
2022/01/16 00:28:00;;;;;;;13.50;6.40;;;;;;;;;;5056051;28;20079;-73
2022/01/16 00:30:27;;;;;;;13.05;6.65;;;;;;;;;;5054861;28;20513;-72
2022/01/16 00:32:59;;;;;;;12.00;6.10;;;;;;;;;;5055940;28;20104;-73
2022/01/16 00:35:26;;;;;;;14.80;7.28;;;;;;;;;;5054706;28;20448;-73
2022/01/16 00:37:53;;;;;;;12.10;6.85;;;;;;;;;;5054657;28;20051;-73
2022/01/16 00:40:20;;;;;;;13.20;6.70;;;;;;;;;;5054540;28;20485;-73
2022/01/16 00:42:47;;;;;;;13.75;7.20;;;;;;;;;;5054588;28;20025;-74
2022/01/16 00:45:15;;;;;;;11.65;7.05;;;;;;;;;;5055823;28;20025;-73
2022/01/16 00:47:42;;;;;;;11.82;7.18;;;;;;;;;;5055814;28;20021;-73
2022/01/16 00:50:09;;;;;;;15.82;7.43;;;;;;;;;;5055689;28;20032;-73
2022/01/16 00:52:36;;;;;;;11.05;6.43;;;;;;;;;;5055554;28;20028;-73
2022/01/16 00:55:04;;;;;;;16.50;7.57;;;;;;;;;;5055360;28;20104;-73
2022/01/16 00:57:31;;;;;;;13.32;6.85;;;;;;;;;;5054397;28;20025;-73
2022/01/16 00:59:58;;;;;;;9.82;6.85;;;;;;;;;;5055472;28;20078;-73
2022/01/16 01:02:26;;;;;;;13.52;7.43;;;;;;;;;;5055507;28;20021;-73
2022/01/16 01:04:53;;;;;;;14.20;7.78;;;;;;;;;;5055199;28;20045;-74
2022/01/16 01:07:20;;;;;;;15.52;6.75;;;;;;;;;;5055460;28;20029;-74
2022/01/16 01:09:47;;;;;;;12.95;7.35;;;;;;;;;;5055281;28;20422;-73
2022/01/16 01:12:27;;;;;;;11.75;7.05;;;;;;;;;;5053360;28;20029;-74
2022/01/16 01:17:50;;;;;;;12.40;6.50;;;;;;;;;;5058805;28;20025;-74
2022/01/16 01:20:19;;;;;;;12.95;7.00;;;;;;;;;;5053757;28;20061;-74
2022/01/16 01:22:48;;;;;;;10.88;6.07;;;;;;;;;;5055075;28;20493;-72
2022/01/16 01:25:16;;;;;;;13.25;7.03;;;;;;;;;;5054862;28;20033;-74
2022/01/16 01:27:44;;;;;;;12.65;6.72;;;;;;;;;;5054979;28;20024;-74
2022/01/16 01:30:16;;;;;;;15.13;7.90;;;;;;;;;;5054884;28;20036;-74
2022/01/16 01:32:44;;;;;;;10.07;5.93;;;;;;;;;;5055052;28;20047;-74
2022/01/16 01:35:12;;;;;;;10.98;6.80;;;;;;;;;;5054754;28;20039;-74
2022/01/16 01:37:40;;;;;;;11.73;6.60;;;;;;;;;;5054712;28;20104;-74
2022/01/16 01:40:09;;;;;;;11.30;5.28;;;;;;;;;;5054614;28;20050;-74
2022/01/16 01:42:45;;;;;;;11.53;6.03;;;;;;;;;;5054626;28;20096;-74
2022/01/16 01:53:29;;;;;;;11.07;5.85;;;;;;;;;;5054835;28;20072;-74
2022/01/16 01:55:56;;;;;;;9.73;6.15;;;;;;;;;;5054287;28;20485;-74
2022/01/16 01:58:23;;;;;;;13.73;5.72;;;;;;;;;;5054477;28;20036;-75
2022/01/16 02:00:50;;;;;;;14.05;6.13;;;;;;;;;;5054359;28;20478;-74
2022/01/16 02:03:32;;;;;;;12.07;5.63;;;;;;;;;;5054041;28;20393;-73
2022/01/16 02:06:00;;;;;;;13.10;6.20;;;;;;;;;;5053029;28;20489;-74
2022/01/16 02:08:27;;;;;;;11.45;6.07;;;;;;;;;;5052870;28;20025;-74
2022/01/16 02:10:56;;;;;;;10.55;5.15;;;;;;;;;;5054055;28;20048;-73
2022/01/16 02:13:28;;;;;;;13.98;5.65;;;;;;;;;;5054066;28;20032;-74
2022/01/16 02:32:45;;;;;;;12.88;4.88;;;;;;;;;;5053965;28;20083;-74
2022/01/16 02:35:13;;;;;;;11.30;5.35;;;;;;;;;;5053602;28;20036;-75
2022/01/16 02:37:40;;;;;;;11.48;4.93;;;;;;;;;;5053521;28;20029;-74
2022/01/16 02:40:18;;;;;;;9.48;4.72;;;;;;;;;;5053405;28;20486;-75
2022/01/16 02:42:49;;;;;;;12.25;4.93;;;;;;;;;;5053292;28;20098;-74
2022/01/16 02:45:28;;;;;;;12.73;4.65;;;;;;;;;;5053447;28;20021;-74
2022/01/16 02:47:56;;;;;;;10.43;4.60;;;;;;;;;;5051825;28;20025;-74
2022/01/16 02:50:23;;;;;;;10.05;4.40;;;;;;;;;;5051912;28;20032;-73
2022/01/16 02:52:51;;;;;;;10.55;4.20;;;;;;;;;;5053073;28;20386;-75
2022/01/16 02:55:20;;;;;;;9.98;4.65;;;;;;;;;;5051865;28;20028;-74
2022/01/16 02:57:57;;;;;;;9.82;4.40;;;;;;;;;;5053357;28;20053;-74
2022/01/16 03:00:25;;;;;;;10.20;4.32;;;;;;;;;;5053213;28;20067;-75
2022/01/16 03:02:53;;;;;;;9.13;4.22;;;;;;;;;;5053204;28;20021;-75
2022/01/16 03:05:20;;;;;;;13.05;4.43;;;;;;;;;;5052967;28;20063;-74
2022/01/16 03:07:47;;;;;;;13.50;4.82;;;;;;;;;;5053173;28;20053;-74
2022/01/16 03:12:49;;;;;;;9.52;4.40;;;;;;;;;;5053087;28;20029;-74
2022/01/16 03:15:17;;;;;;;13.02;4.75;;;;;;;;;;5053156;28;20478;-74
2022/01/16 03:23:12;;;;;;;10.48;4.55;;;;;;;;;;5053023;28;20078;-73
2022/01/16 03:25:40;;;;;;;12.48;4.82;;;;;;;;;;5053038;28;20021;-73
2022/01/16 03:28:07;;;;;;;11.43;4.53;;;;;;;;;;5052896;28;20501;-74
2022/01/16 03:30:34;;;;;;;11.38;4.57;;;;;;;;;;5051705;28;20032;-73
2022/01/16 03:33:01;;;;;;;11.90;4.20;;;;;;;;;;5052840;28;20033;-73
2022/01/16 03:35:28;;;;;;;12.48;4.30;;;;;;;;;;5054323;28;20390;-73
2022/01/16 03:37:55;;;;;;;9.55;3.88;;;;;;;;;;5055739;28;20028;-73
2022/01/16 03:40:24;;;;;;;12.27;3.85;;;;;;;;;;5057073;28;20045;-75
2022/01/16 03:42:52;;;;;;;9.93;4.10;;;;;;;;;;5056879;28;20021;-74
2022/01/16 03:45:19;;;;;;;10.88;4.05;;;;;;;;;;5056884;28;20028;-74
2022/01/16 03:47:46;;;;;;;9.70;3.92;;;;;;;;;;5056816;28;20142;-74
2022/01/16 03:50:13;;;;;;;10.65;4.00;;;;;;;;;;5056794;28;20040;-74
2022/01/16 03:52:40;;;;;;;15.35;3.95;;;;;;;;;;5056724;28;20132;-74
2022/01/16 03:55:08;;;;;;;11.40;4.25;;;;;;;;;;5056661;28;20037;-74
2022/01/16 03:57:36;;;;;;;11.25;4.57;;;;;;;;;;5055488;28;20017;-74
2022/01/16 04:00:04;;;;;;;8.02;3.60;;;;;;;;;;5055322;28;20084;-74
2022/01/16 04:02:32;;;;;;;12.43;4.18;;;;;;;;;;5056763;28;20024;-74
2022/01/16 04:04:59;;;;;;;10.60;3.78;;;;;;;;;;5054959;28;20060;-73
2022/01/16 04:07:31;;;;;;;9.63;3.60;;;;;;;;;;5055255;28;20029;-74
2022/01/16 04:09:58;;;;;;;11.38;3.85;;;;;;;;;;5055221;28;20036;-74
2022/01/16 04:12:26;;;;;;;11.65;3.80;;;;;;;;;;5056532;28;20100;-73
2022/01/16 04:17:21;;;;;;;11.02;3.65;;;;;;;;;;5056227;28;20017;-74
2022/01/16 04:19:48;;;;;;;14.02;4.40;;;;;;;;;;5056291;28;20370;-74
2022/01/16 04:22:16;;;;;;;10.23;3.42;;;;;;;;;;5054923;28;20025;-74
2022/01/16 04:24:43;;;;;;;13.07;3.92;;;;;;;;;;5056026;28;20032;-74
2022/01/16 04:27:11;;;;;;;13.98;4.63;;;;;;;;;;5056131;28;20025;-74
2022/01/16 04:29:40;;;;;;;10.15;3.53;;;;;;;;;;5054819;28;20025;-74
2022/01/16 04:32:08;;;;;;;11.65;4.20;;;;;;;;;;5056048;28;20029;-75
2022/01/16 04:34:35;;;;;;;13.98;4.32;;;;;;;;;;5054650;28;20075;-74
2022/01/16 04:37:02;;;;;;;11.15;3.90;;;;;;;;;;5054667;28;20104;-74
2022/01/16 04:39:34;;;;;;;11.23;3.75;;;;;;;;;;5054572;28;20074;-74
2022/01/16 04:44:49;;;;;;;10.65;3.88;;;;;;;;;;5055763;28;20082;-75
2022/01/16 04:47:16;;;;;;;10.70;4.18;;;;;;;;;;5054514;28;20085;-74
2022/01/16 04:49:43;;;;;;;13.75;4.13;;;;;;;;;;5054381;28;20036;-74
2022/01/16 04:52:22;;;;;;;13.65;4.50;;;;;;;;;;5055528;28;20036;-74
2022/01/16 04:54:49;;;;;;;13.88;3.88;;;;;;;;;;5055418;28;20025;-74
2022/01/16 04:57:17;;;;;;;14.63;4.10;;;;;;;;;;5055531;28;20386;-74
2022/01/16 04:59:44;;;;;;;12.23;4.03;;;;;;;;;;5054138;28;20032;-74
2022/01/16 05:02:11;;;;;;;8.60;3.67;;;;;;;;;;5054268;28;20036;-74
2022/01/16 05:04:38;;;;;;;13.02;4.05;;;;;;;;;;5055135;28;20094;-75
2022/01/16 05:07:06;;;;;;;11.50;3.97;;;;;;;;;;5054233;28;20038;-75
2022/01/16 05:09:33;;;;;;;12.18;3.53;;;;;;;;;;5055172;28;20044;-75
2022/01/16 05:12:07;;;;;;;11.70;3.95;;;;;;;;;;5053793;28;20037;-75
2022/01/16 05:17:19;;;;;;;12.60;3.97;;;;;;;;;;5055001;28;20114;-75
2022/01/16 05:19:46;;;;;;;12.00;4.35;;;;;;;;;;5055067;28;20017;-72
2022/01/16 05:22:14;;;;;;;11.32;4.22;;;;;;;;;;5053644;28;20375;-75
2022/01/16 05:24:41;;;;;;;11.70;3.83;;;;;;;;;;5053661;28;20025;-74
2022/01/16 05:27:09;;;;;;;10.98;3.92;;;;;;;;;;5055089;28;20032;-74
2022/01/16 05:29:37;;;;;;;10.25;3.50;;;;;;;;;;5054956;28;20020;-75
2022/01/16 05:32:04;;;;;;;11.82;3.50;;;;;;;;;;5054824;28;20505;-75
2022/01/16 05:34:31;;;;;;;13.98;3.92;;;;;;;;;;5054703;28;20024;-75
2022/01/16 05:36:58;;;;;;;10.38;3.63;;;;;;;;;;5054891;28;20017;-75
2022/01/16 05:39:25;;;;;;;14.52;3.90;;;;;;;;;;5053432;28;20565;-75
2022/01/16 05:41:53;;;;;;;10.52;3.67;;;;;;;;;;5054536;28;20096;-76
2022/01/16 05:44:20;;;;;;;9.93;4.18;;;;;;;;;;5054632;28;20017;-73
2022/01/16 05:46:47;;;;;;;13.05;3.65;;;;;;;;;;5054658;28;20462;-74
2022/01/16 05:49:14;;;;;;;10.50;3.67;;;;;;;;;;5054486;28;20013;-74
2022/01/16 05:51:41;;;;;;;10.80;3.67;;;;;;;;;;5054375;28;20021;-75
2022/01/16 05:54:08;;;;;;;11.15;4.03;;;;;;;;;;5053065;28;20107;-75
2022/01/16 05:56:36;;;;;;;15.15;4.43;;;;;;;;;;5054493;28;20047;-75
2022/01/16 05:59:03;;;;;;;16.08;4.88;;;;;;;;;;5054113;28;20386;-75
2022/01/16 06:01:30;;;;;;;14.20;4.13;;;;;;;;;;5052871;28;20175;-73
2022/01/16 06:03:58;;;;;;;15.57;4.18;;;;;;;;;;5053828;28;20052;-75
2022/01/16 06:06:25;;;;;;;16.40;4.22;;;;;;;;;;5054062;28;20429;-75
2022/01/16 06:08:52;;;;;;;15.93;4.82;;;;;;;;;;5052734;28;20405;-76
2022/01/16 06:11:19;;;;;;;14.45;4.38;;;;;;;;;;5052958;28;20025;-74
2022/01/16 06:13:46;;;;;;;13.65;4.38;;;;;;;;;;5052870;28;20508;-75
2022/01/16 06:16:13;;;;;;;13.68;4.40;;;;;;;;;;5054063;28;20029;-75
2022/01/16 06:18:40;;;;;;;11.57;3.80;;;;;;;;;;5053926;28;20462;-75
2022/01/16 06:21:08;;;;;;;13.52;4.35;;;;;;;;;;5052780;28;20025;-75
2022/01/16 06:23:35;;;;;;;14.25;4.28;;;;;;;;;;5054038;28;20044;-75
2022/01/16 06:26:02;;;;;;;14.10;4.07;;;;;;;;;;5054024;28;20032;-75
2022/01/16 06:28:31;;;;;;;13.27;4.45;;;;;;;;;;5053835;28;20029;-74
2022/01/16 06:30:59;;;;;;;14.05;4.60;;;;;;;;;;5053885;28;20093;-75
2022/01/16 06:33:27;;;;;;;12.30;4.03;;;;;;;;;;5053659;28;20017;-74
2022/01/16 06:35:55;;;;;;;17.05;4.20;;;;;;;;;;5053597;28;20028;-74
2022/01/16 06:38:22;;;;;;;13.10;4.57;;;;;;;;;;5053682;28;20029;-75
2022/01/16 06:40:49;;;;;;;12.63;4.22;;;;;;;;;;5053578;28;20032;-75
2022/01/16 06:43:16;;;;;;;13.73;3.92;;;;;;;;;;5053403;28;20082;-75
2022/01/16 06:45:43;;;;;;;14.55;3.92;;;;;;;;;;5052232;28;20114;-74
2022/01/16 06:48:10;;;;;;;16.23;4.32;;;;;;;;;;5053362;28;20068;-75
2022/01/16 06:50:37;;;;;;;13.43;3.95;;;;;;;;;;5053434;28;20377;-75
2022/01/16 06:53:05;;;;;;;18.98;4.60;;;;;;;;;;5051745;28;20021;-75
2022/01/16 06:55:32;;;;;;;14.65;4.63;;;;;;;;;;5053333;28;20091;-75
2022/01/16 06:57:59;;;;;;;15.55;4.32;;;;;;;;;;5053190;28;20039;-75
2022/01/16 07:00:26;;;;;;;9.55;3.58;;;;;;;;;;5053289;28;20537;-75
2022/01/16 07:02:53;;;;;;;12.48;3.97;;;;;;;;;;5051848;28;20049;-75
2022/01/16 07:05:20;;;;;;;12.32;3.75;;;;;;;;;;5053088;28;20045;-75
2022/01/16 07:07:47;;;;;;;12.77;4.28;;;;;;;;;;5051956;28;20477;-75
2022/01/16 07:10:14;;;;;;;14.73;4.65;;;;;;;;;;5052458;28;20092;-75
2022/01/16 07:12:42;;;;;;;12.85;4.30;;;;;;;;;;5051794;28;20031;-75
2022/01/16 07:15:09;;;;;;;14.70;3.88;;;;;;;;;;5052991;28;20551;-75
2022/01/16 07:17:36;;;;;;;12.00;3.70;;;;;;;;;;5052903;28;20017;-75
2022/01/16 07:20:04;;;;;;;13.00;4.15;;;;;;;;;;5051674;28;20086;-74
2022/01/16 07:22:34;;;;;;;14.02;3.45;;;;;;;;;;5052976;28;20405;-74
2022/01/16 07:25:01;;;;;;;16.08;4.55;;;;;;;;;;5051579;28;20029;-74
2022/01/16 07:27:28;;;;;;;14.48;5.32;;;;;;;;;;5053131;28;20070;-74
2022/01/16 07:29:55;;;;;;;13.18;4.38;;;;;;;;;;5052800;28;20025;-74
2022/01/16 07:32:22;;;;;;;12.73;3.70;;;;;;;;;;5051667;28;20032;-74
2022/01/16 07:34:49;;;;;;;12.00;3.88;;;;;;;;;;5052840;28;20036;-74
2022/01/16 07:37:17;;;;;;;16.48;4.63;;;;;;;;;;5052864;28;20025;-75
2022/01/16 07:39:44;;;;;;;11.70;4.10;;;;;;;;;;5052715;28;20032;-75
2022/01/16 07:42:11;;;;;;;12.80;4.55;;;;;;;;;;5051575;28;20021;-75
2022/01/16 07:44:38;;;;;;;14.88;3.90;;;;;;;;;;5052799;28;20021;-75
2022/01/16 07:47:06;;;;;;;15.70;4.05;;;;;;;;;;5051659;28;20482;-75
2022/01/16 07:49:33;;;;;;;12.75;4.55;;;;;;;;;;5052864;28;20053;-75
2022/01/16 07:52:00;;;;;;;13.45;4.38;;;;;;;;;;5052649;28;20050;-75
2022/01/16 07:54:27;;;;;;;16.08;4.95;;;;;;;;;;5051366;28;20117;-76
2022/01/16 07:56:54;;;;;;;13.50;4.80;;;;;;;;;;5052738;28;20017;-75
2022/01/16 07:59:21;;;;;;;13.50;4.32;;;;;;;;;;5052772;28;20021;-75
2022/01/16 08:01:49;;;;;;;16.95;4.80;;;;;;;;;;5051431;28;20592;-75
2022/01/16 08:04:16;;;;;;;13.10;4.28;;;;;;;;;;5051170;28;20490;-76
2022/01/16 08:06:43;;;;;;;18.17;4.50;;;;;;;;;;5052617;28;20025;-75
2022/01/16 08:09:10;;;;;;;14.88;4.85;;;;;;;;;;5051364;28;20049;-74
2022/01/16 08:11:40;;;;;;;14.20;4.82;;;;;;;;;;5052480;28;20114;-74
2022/01/16 08:14:07;;;;;;;12.38;4.43;;;;;;;;;;5051342;28;20032;-74
2022/01/16 08:16:34;;;;;;;16.70;5.10;;;;;;;;;;5052422;28;20025;-74
2022/01/16 08:19:01;;;;;;;13.52;4.22;;;;;;;;;;5052471;28;20028;-74
2022/01/16 08:21:28;;;;;;;14.43;5.45;;;;;;;;;;5052287;28;20028;-75
2022/01/16 08:23:55;;;;;;;15.18;4.55;;;;;;;;;;5055986;28;20046;-75
2022/01/16 08:26:23;;;;;;;15.68;4.57;;;;;;;;;;5056316;28;20087;-75
2022/01/16 08:28:50;;;;;;;13.48;4.90;;;26.10;99.90;;;;;;5056151;28;20437;-75
2022/01/16 08:31:17;;;;;;;16.27;4.72;;;26.10;99.90;;;;;;5056120;28;20021;-74
2022/01/16 08:33:44;;;;;;;14.90;4.75;;;26.00;99.90;;;;;;5054685;28;20028;-74
2022/01/16 08:36:12;;;;;;;20.02;5.50;;;25.90;99.90;;;;;;5055887;28;20057;-75
2022/01/16 08:38:42;;;;;;;14.85;4.90;;;25.80;99.90;;;;;;5054698;28;20050;-74
2022/01/16 08:41:10;;;;;;;16.05;5.10;;;25.70;99.90;;;;;;5054471;28;20025;-75
2022/01/16 08:43:37;;;;;;;18.45;5.45;;;;;;;;;;5055835;28;20021;-74
2022/01/16 08:46:04;;;;;;;20.75;5.60;;;;;;;;;;5055778;28;20029;-72
2022/01/16 08:48:31;;;;;;;17.38;5.57;;;;;;;;;;5055754;28;20143;-74
2022/01/16 08:50:59;;;;;;;15.95;5.60;;;;;;;;;;5055768;28;20104;-73
2022/01/16 08:53:26;;;;;;;13.75;5.40;;;;;;;;;;5054367;28;20036;-74
2022/01/16 08:55:53;;;;;;;13.40;5.75;;;;;;;;;;5055470;28;20032;-74
2022/01/16 08:58:20;;;;;;;17.15;5.68;;;;;;;;;;5054435;28;20028;-73
2022/01/16 09:00:48;;;;;;;16.50;5.75;;;;;;;;;;5055603;28;20128;-74
2022/01/16 09:03:16;;;;;;;17.70;5.63;;;;;;;;;;5055306;28;20017;-74
2022/01/16 09:05:43;;;;;;;15.38;5.45;;;;;;;;;;5055573;28;20029;-73
2022/01/16 09:08:10;;;;;;;14.27;5.78;;;;;;;;;;5054056;28;20027;-74
2022/01/16 09:10:37;;;;;;;19.10;5.78;;;;;;;;;;5055251;28;20109;-74
2022/01/16 09:13:05;;;;;;;16.88;5.55;;;;;;;;;;5055169;28;20436;-74
2022/01/16 09:15:32;;;;;;;15.50;5.10;;;;;;;;;;5053873;28;20507;-75
2022/01/16 09:17:59;;;;;;;13.20;5.57;;;;;;;;;;5055122;28;20096;-74
2022/01/16 09:20:27;;;;;;;15.82;5.50;;;;;;;;;;5055071;28;20477;-75
2022/01/16 09:22:54;;;;;;;15.23;5.25;;;;;;;;;;5053806;28;20025;-74
2022/01/16 09:25:22;;;;;;;17.98;5.53;;;;;;;;;;5055003;28;20090;-75
2022/01/16 09:27:50;;;;;;;15.25;5.40;;;;;;;;;;5053637;28;20108;-75
2022/01/16 09:30:17;;;;;;;15.20;5.53;;;;;;;;;;5055047;28;20035;-74
2022/01/16 09:32:44;;;;;;;16.73;5.60;;;;;;;;;;5053024;28;20538;-74
2022/01/16 09:35:13;;;;;;;17.23;5.20;;;;;;;;;;5054807;28;20090;-74
2022/01/16 09:37:40;;;;;;;17.45;5.70;;;;;;;;;;5054873;28;20070;-74
2022/01/16 09:40:12;;;;;;;15.82;6.03;;;;;;;;;;5055015;28;20100;-74
2022/01/16 09:42:39;;;;;;;14.52;5.90;;;;;;;;;;5054946;28;20025;-74
2022/01/16 09:45:09;;;;;;;19.08;6.22;;;;;;;;;;5053480;28;20029;-74
2022/01/16 09:47:37;;;;;;;17.65;5.32;;;;;;;;;;5054840;28;20124;-73
2022/01/16 09:50:05;;;;;;;18.30;6.00;;;;;;;;;;5054678;28;20025;-74
2022/01/16 09:52:42;;;;;;;17.85;5.72;;;;;;;;;;5053385;28;20387;-73
2022/01/16 09:55:10;;;;;;;17.25;5.43;;;;;;;;;;5054466;28;20103;-74
2022/01/16 09:57:38;;;;;;;14.88;5.35;;;;;;;;;;5054447;28;20029;-73
2022/01/16 10:00:06;;;;;;;12.98;5.35;;;;;;;;;;5053168;28;20032;-74
2022/01/16 10:02:36;;;;;;;16.42;5.30;;;;;;;;;;5054680;28;20028;-74
2022/01/16 10:05:21;;;;;;;17.23;5.78;;;;;;;;;;5053946;28;20045;-73
2022/01/16 10:07:48;;;;;;;16.35;6.10;;;;;;;;;;5053113;28;20033;-75
2022/01/16 10:10:16;;;;;;;16.77;5.60;;;;;;;;;;5052837;28;20112;-75
2022/01/16 10:12:51;;;;;;;17.83;6.32;;;;;;;;;;5053944;28;20017;-75
2022/01/16 10:15:29;;;;;;;16.88;5.60;;;;;;;;;;5053916;28;20486;-75
2022/01/16 10:17:57;;;;;;;21.20;6.15;;;;;;;;;;5053826;28;20017;-75
2022/01/16 10:20:25;;;;;;;19.60;5.93;;;;;;;;;;5052602;28;20102;-74
2022/01/16 10:22:54;;;;;;;18.70;6.43;;;;;;;;;;5053926;28;20386;-73
2022/01/16 10:25:47;;;;;;;15.80;5.80;;;;;;;;;;5053788;28;20025;-73
2022/01/16 10:28:25;;;;;;;16.85;6.53;;;;;;;;;;5053260;28;20066;-74
2022/01/16 10:30:57;;;;;;;15.63;5.40;;;;;;;;;;5052243;28;20554;-74
2022/01/16 10:33:25;;;;;;;15.95;5.60;;;;;;;;;;5053502;28;20025;-74
2022/01/16 10:35:53;;;;;;;14.77;5.72;;;;;;;;;;5052039;28;20398;-74
2022/01/16 10:38:22;;;;;;;14.85;5.93;;;;;;;;;;5053412;28;20074;-74
2022/01/16 10:40:53;;;;;;;16.02;6.35;;;;;;;;;;5053402;28;20500;-74
2022/01/16 10:43:21;;;;;;;16.17;7.38;;;;;;;;;;5053753;28;20021;-73
2022/01/16 10:45:51;;;;;;;15.02;6.45;;;;;;;;;;5052736;28;20150;-73
2022/01/16 10:48:24;;;;;;;15.50;6.05;;;;;;;;;;5052461;28;20036;-73
2022/01/16 10:50:51;;;;;;;24.65;6.50;;;;;;;;;;5053581;28;20024;-73
2022/01/16 10:53:21;;;;;;;23.33;5.90;;;;;;;;;;5053439;28;20027;-74
2022/01/16 10:55:52;;;;;;;19.15;6.60;;;;;;;;;;5053210;28;20108;-74
2022/01/16 10:58:19;;;;;;;19.98;6.70;;;;;;;;;;5053281;28;20025;-74
2022/01/16 11:00:54;;;;;;;18.42;6.53;;;;;;;;;;5053228;28;20022;-74
2022/01/16 11:03:22;;;;;;;22.75;6.72;;;;;;;;;;5051756;28;20449;-74
2022/01/16 11:05:50;;;;;;;20.40;6.50;;;;;;;;;;5053355;28;20033;-74
2022/01/16 11:08:19;;;;;;;16.92;6.47;;;;;;;;;;5053208;28;20031;-74
2022/01/16 11:10:47;;;;;;;18.23;6.88;;;;;;;;;;5051867;28;20064;-74
2022/01/16 11:13:16;;;;;;;21.50;6.22;;;;;;;;;;5052934;28;20503;-74
2022/01/16 11:15:44;;;;;;;19.83;5.63;;;;;;;;;;5052785;28;20558;-75
2022/01/16 11:18:12;;;;;;;21.40;6.30;;;;;;;;;;5052870;28;20021;-74
2022/01/16 11:20:43;;;;;;;17.30;5.45;;;;;;;;;;5051444;28;20051;-74
2022/01/16 11:23:30;;;;;;;21.10;6.75;;;;;;;;;;5052893;28;20049;-75
2022/01/16 11:26:02;;;;;;;19.55;5.88;;;;;;;;;;5051545;28;20036;-74
2022/01/16 11:28:29;;;;;;;17.90;5.32;;;;;;;;;;5052951;28;20031;-74
2022/01/16 11:31:01;;;;;;;21.90;5.65;;;;;;;;;;5051701;28;20045;-75
2022/01/16 11:33:29;;;;;;;26.38;6.65;;;;;;;;;;5052831;28;20028;-74
2022/01/16 11:36:19;;;;;;;19.88;6.60;;;;;;;;;;5052856;28;20030;-74
2022/01/16 11:38:56;;;;;;;19.25;5.88;;;;;;;;;;5052513;28;20033;-74
2022/01/16 11:41:33;;;;;;;22.23;6.95;;;;;;;;;;5052888;28;20096;-74
2022/01/16 11:44:10;;;;;;;22.77;7.10;;;;;;;;;;5052838;28;20143;-74
2022/01/16 11:46:49;;;;;;;17.40;6.32;;;;;;;;;;5052985;28;20112;-74
2022/01/16 11:49:19;;;;;;;19.38;6.60;;;;;;;;;;5052923;28;20029;-74
2022/01/16 11:51:51;;;;;;;23.67;7.63;;;;;;;;;;5052754;28;20017;-72
2022/01/16 11:54:37;;;;;;;16.70;7.53;;;;;;;;;;5052696;28;20078;-74
2022/01/16 11:57:18;;;;;;;19.95;8.35;;;;;;;;;;5055125;28;20035;-74
2022/01/16 11:59:46;;;;;;;20.75;8.40;;;;;;;;;;5056731;28;20385;-74
2022/01/16 12:02:15;;;;;;;25.15;8.57;;;;;;;;;;5055376;28;20518;-75
2022/01/16 12:04:45;;;;;;;25.48;8.68;;;;;;;;;;5056317;28;20041;-74
2022/01/16 12:07:12;;;;;;;22.25;7.93;;;;;;;;;;5056435;28;20021;-74
2022/01/16 12:12:15;;;;;;;22.35;7.10;;;;;;;;;;5056422;28;20061;-74
2022/01/16 12:15:07;;;;;;;23.23;7.07;;;;;;;;;;5056298;28;20075;-74
2022/01/16 12:17:35;;;;;;;25.42;7.28;;;;;;;;;;5055095;28;20394;-74
2022/01/16 12:20:18;;;;;;;18.60;6.70;;;;;;;;;;5055038;28;20567;-74
2022/01/16 12:22:46;;;;;;;22.83;6.55;;;;;;;;;;5056029;28;20021;-74
2022/01/16 12:25:25;;;;;;;20.75;7.38;;;;;;;;;;5054733;28;20025;-74
2022/01/16 12:28:01;;;;;;;17.58;6.80;;;;;;;;;;5056006;28;20025;-74
2022/01/16 12:30:35;;;;;;;23.23;7.65;;;;;;;;;;5054831;28;20025;-74
2022/01/16 12:33:22;;;;;;;18.38;6.32;;;;;;;;;;5056061;28;20029;-75
2022/01/16 12:35:54;;;;;;;24.00;7.43;;;;;;;;;;5054562;28;20161;-74
2022/01/16 12:38:31;;;;;;;25.80;7.43;;;;;;;;;;5056086;28;20017;-74
2022/01/16 12:41:11;;;;;;;23.88;7.20;;;;;;;;;;5055994;28;20082;-74
2022/01/16 12:43:48;;;;;;;22.83;7.03;;;;;;;;;;5055729;28;20025;-74
2022/01/16 12:46:17;;;;;;;24.77;7.25;;;;;;;;;;5054612;28;20491;-74
2022/01/16 12:48:51;;;;;;;26.23;7.13;;;;;;;;;;5054492;28;20028;-74
2022/01/16 12:51:18;;;;;;;20.45;6.90;;;;;;;;;;5054418;28;20502;-74
2022/01/16 12:53:49;;;;;;;18.30;6.97;;;;;;;;;;5055502;28;20162;-74
2022/01/16 12:56:17;;;;;;;16.98;6.55;;;;;;;;;;5055600;28;20048;-74
2022/01/16 12:58:44;;;;;;;19.55;6.97;;;;;;;;;;5055501;28;20088;-74
2022/01/16 13:01:11;;;;;;;19.50;6.10;;;;;;;;;;5055477;28;20017;-74
2022/01/16 13:03:43;;;;;;;18.02;6.07;;;;;;;;;;5055372;28;20041;-74
2022/01/16 13:06:16;;;;;;;17.13;6.15;;;;;;;;;;5055637;28;20033;-74
2022/01/16 13:09:04;;;;;;;18.88;5.85;;;;;;;;;;5054326;28;20124;-74
2022/01/16 13:11:33;;;;;;;20.77;6.30;;;;;;;;;;5055282;28;20467;-75
2022/01/16 13:14:01;;;;;;;20.80;5.63;;;;;;;;;;5054097;28;20059;-74
2022/01/16 13:16:32;;;;;;;19.20;6.00;;;;;;;;;;5055171;28;20029;-74
2022/01/16 13:18:59;;;;;;;21.58;6.75;;;;;;;;;;5053992;28;20104;-73
2022/01/16 13:21:34;;;;;;;21.35;6.05;;;;;;;;;;5053929;28;20053;-74
2022/01/16 13:24:01;;;;;;;19.13;6.65;;;;;;;;;;5055310;28;20048;-74
2022/01/16 13:26:29;;;;;;;20.55;5.88;;;;;;;;;;5053693;28;20025;-74
2022/01/16 13:29:02;;;;;;;18.08;6.07;;;;;;;;;;5053706;28;20025;-74
2022/01/16 13:31:30;;;;;;;17.25;6.03;;;;;;;;;;5055020;28;20482;-73
2022/01/16 13:34:14;;;;;;;18.23;5.93;;;;;;;;;;5053659;28;20109;-72
2022/01/16 13:36:51;;;;;;;18.45;5.93;;;;;;;;;;5053551;28;20025;-73
2022/01/16 13:39:33;;;;;;;24.27;6.80;;;;;;;;;;5054770;28;20057;-73
2022/01/16 13:42:15;;;;;;;17.70;5.15;;;;;;;;;;5054952;28;20028;-73
2022/01/16 13:44:43;;;;;;;15.27;5.60;;;;;;;;;;5054886;28;20017;-73
2022/01/16 13:47:10;;;;;;;20.48;6.32;;;;;;;;;;5054648;28;20013;-74
2022/01/16 13:49:53;;;;;;;17.23;5.55;;;;;;;;;;5054603;28;20145;-73
2022/01/16 13:52:25;;;;;;;18.05;6.22;;;;;;;;;;5054819;28;20389;-74
2022/01/16 13:55:12;;;;;;;21.00;5.95;;;;;;;;;;5054525;28;20024;-73
2022/01/16 13:57:39;;;;;;;17.85;5.63;;;;;;;;;;5054555;28;20025;-73
2022/01/16 14:00:10;;;;;;;22.17;6.35;;;;;;;;;;5054505;28;20048;-74
2022/01/16 14:02:38;;;;;;;20.00;6.88;;;;;;;;;;5054505;28;20017;-74
2022/01/16 14:05:06;;;;;;;17.42;5.07;;;;;;;;;;5052959;28;20159;-74
2022/01/16 14:07:33;;;;;;;20.83;6.50;;;;;;;;;;5054366;28;20049;-73
2022/01/16 14:10:00;;;;;;;17.08;5.85;;;;;;;;;;5052875;28;20068;-74
2022/01/16 14:12:28;;;;;;;14.70;5.55;;;;;;;;;;5054151;28;20458;-72
2022/01/16 14:14:55;;;;;;;19.10;5.90;;;;;;;;;;5054168;28;20021;-73
2022/01/16 14:22:22;;;;;;;18.65;6.03;;;;;;;;;;5054154;28;20079;-74
2022/01/16 14:24:55;;;;;;;15.90;5.70;;;;;;;;;;5052807;28;20031;-74
2022/01/16 14:27:26;;;;;;;15.57;6.38;;;;;;;;;;5053930;28;20501;-74
2022/01/16 14:29:59;;;;;;;22.60;6.10;;;;;;;;;;5053855;28;20025;-75
2022/01/16 14:32:27;;;;;;;18.38;6.50;;;;;;;;;;5053900;28;20075;-73
2022/01/16 14:34:54;;;;;;;22.92;7.15;;;;;;;;;;5053893;28;20029;-74
2022/01/16 14:37:22;;;;;;;18.73;6.03;;;;;;;;;;5053756;28;20429;-74
2022/01/16 14:39:50;;;;;;;16.90;5.93;;;;;;;;;;5053735;28;20025;-74
2022/01/16 14:42:18;;;;;;;18.13;7.28;;;;;;;;;;5053494;28;20397;-74
2022/01/16 14:44:46;;;;;;;18.73;6.43;;;;;;;;;;5053579;28;20367;-74
2022/01/16 14:47:14;;;;;;;24.90;6.68;;;;;;;;;;5053580;28;20067;-74
2022/01/16 14:49:42;;;;;;;20.73;6.00;;;;;;;;;;5052206;28;20036;-74
2022/01/16 14:52:10;;;;;;;17.40;6.05;;;;;;;;;;5053506;28;20025;-74
2022/01/16 14:54:37;;;;;;;16.02;6.53;;;;;;;;;;5053399;28;20081;-74
2022/01/16 14:57:05;;;;;;;17.80;6.78;;;;;;;;;;5053489;28;20021;-74
2022/01/16 14:59:33;;;;;;;17.30;6.10;;;;;;;;;;5053417;28;20028;-74
2022/01/16 15:02:01;;;;;;;16.25;6.00;;;;;;;;;;5053320;28;20052;-74
2022/01/16 15:04:28;;;;;;;23.05;7.18;;;;;;;;;;5053033;28;20552;-74
2022/01/16 15:06:55;;;;;;;14.35;5.70;;;;;;;;;;5052024;28;20025;-74
2022/01/16 15:09:23;;;;;;;21.08;6.78;;;;;;;;;;5053313;28;20021;-74
2022/01/16 15:11:50;;;;;;;16.25;6.00;;;;;;;;;;5053291;28;20067;-74
2022/01/16 15:14:17;;;;;;;24.25;7.95;;;;;;;;;;5051909;28;20493;-74
2022/01/16 15:16:44;;;;;;;19.00;6.40;;;;;;;;;;5053066;28;20029;-74
2022/01/16 15:19:17;;;;;;;19.75;6.90;;;;;;;;;;5051746;28;20363;-74
2022/01/16 15:21:48;;;;;;;18.88;6.97;;;;;;;;;;5051802;28;20021;-73
2022/01/16 15:24:16;;;;;;;18.42;5.88;;;;;;;;;;5051890;28;20017;-73
2022/01/16 15:26:43;;;;;;;23.65;7.20;;;;;;;;;;5053025;28;20035;-74
2022/01/16 15:29:16;;;;;;;17.27;7.10;;;;;;;;;;5053039;28;20025;-73
2022/01/16 15:31:43;;;;;;;18.90;7.75;;;;;;;;;;5052407;28;20502;-74